Cybur, Mississippi
Current Conditions -  °F | °C
As of 12:53 PM on Thursday 27 Nov 2014 (Local Time) from KASD Reporting Station
Clear Clear  
Wind Chill: 60°   Ceiling: Unl
Heat Index: 60°   Visibility: 10mi
Dew Point: 29°   Wind: 13mph
Humidity: 31%   Direction: 10°N
Pressure: 30.38"   Gusts: NA
Location:  30.5854°N, 89.6932°W
Report Text: KASD 271853Z AUTO 01011KT 10SM CLR 16/M02 A3038 RMK AO2 SLP287 T01561017
Loading
Personal Weather Stations






























Interactive Weather Map New forecast layout! Learn more

10-Day Weather Forecast

Advertisements
Track Severe Weather on mobile